sensor_id;sensor_type;location;lat;lon;timestamp;P1;durP1;ratioP1;P2;durP2;ratioP2
10013;SDS011;45684;48.358;10.746;2023-08-21T00:02:14;10.50;;;9.57;;
10013;SDS011;45684;48.358;10.746;2023-08-21T00:04:42;8.90;;;8.23;;
10013;SDS011;45684;48.358;10.746;2023-08-21T00:07:10;9.23;;;8.53;;
10013;SDS011;45684;48.358;10.746;2023-08-21T00:09:39;9.45;;;8.52;;
10013;SDS011;45684;48.358;10.746;2023-08-21T00:12:07;9.52;;;8.73;;
10013;SDS011;45684;48.358;10.746;2023-08-21T00:14:35;10.00;;;8.90;;
10013;SDS011;45684;48.358;10.746;2023-08-21T00:17:03;9.80;;;8.93;;
10013;SDS011;45684;48.358;10.746;2023-08-21T00:19:31;9.40;;;8.70;;
10013;SDS011;45684;48.358;10.746;2023-08-21T00:21:59;10.17;;;9.27;;
10013;SDS011;45684;48.358;10.746;2023-08-21T00:24:27;10.38;;;9.45;;
10013;SDS011;45684;48.358;10.746;2023-08-21T00:26:56;10.03;;;9.23;;
10013;SDS011;45684;48.358;10.746;2023-08-21T00:29:25;9.03;;;8.33;;
10013;SDS011;45684;48.358;10.746;2023-08-21T00:31:53;10.07;;;9.17;;
10013;SDS011;45684;48.358;10.746;2023-08-21T00:34:21;9.93;;;9.03;;
10013;SDS011;45684;48.358;10.746;2023-08-21T00:36:49;9.60;;;8.80;;
10013;SDS011;45684;48.358;10.746;2023-08-21T00:39:16;9.60;;;8.80;;
10013;SDS011;45684;48.358;10.746;2023-08-21T00:41:44;9.87;;;9.10;;
10013;SDS011;45684;48.358;10.746;2023-08-21T00:44:13;9.40;;;8.80;;
10013;SDS011;45684;48.358;10.746;2023-08-21T00:46:41;9.97;;;9.00;;
10013;SDS011;45684;48.358;10.746;2023-08-21T00:49:09;9.68;;;8.98;;
10013;SDS011;45684;48.358;10.746;2023-08-21T00:51:39;9.60;;;8.83;;
10013;SDS011;45684;48.358;10.746;2023-08-21T00:54:07;9.53;;;8.73;;
10013;SDS011;45684;48.358;10.746;2023-08-21T00:56:36;9.70;;;8.90;;
10013;SDS011;45684;48.358;10.746;2023-08-21T00:59:04;9.40;;;8.60;;
10013;SDS011;45684;48.358;10.746;2023-08-21T01:01:34;10.10;;;9.17;;
10013;SDS011;45684;48.358;10.746;2023-08-21T01:04:03;10.07;;;9.30;;
10013;SDS011;45684;48.358;10.746;2023-08-21T01:06:31;9.90;;;9.10;;
10013;SDS011;45684;48.358;10.746;2023-08-21T01:09:00;9.27;;;8.53;;
10013;SDS011;45684;48.358;10.746;2023-08-21T01:11:34;9.20;;;8.50;;
10013;SDS011;45684;48.358;10.746;2023-08-21T01:14:11;9.57;;;8.77;;
10013;SDS011;45684;48.358;10.746;2023-08-21T01:16:45;9.97;;;9.17;;
10013;SDS011;45684;48.358;10.746;2023-08-21T01:19:19;9.90;;;9.10;;
10013;SDS011;45684;48.358;10.746;2023-08-21T01:21:53;10.20;;;9.30;;
10013;SDS011;45684;48.358;10.746;2023-08-21T01:24:23;10.10;;;9.27;;
10013;SDS011;45684;48.358;10.746;2023-08-21T01:26:51;9.53;;;8.80;;
10013;SDS011;45684;48.358;10.746;2023-08-21T01:29:19;9.53;;;8.70;;
10013;SDS011;45684;48.358;10.746;2023-08-21T01:31:48;9.80;;;9.00;;
10013;SDS011;45684;48.358;10.746;2023-08-21T01:34:24;10.07;;;9.17;;
10013;SDS011;45684;48.358;10.746;2023-08-21T01:36:53;9.80;;;9.00;;
10013;SDS011;45684;48.358;10.746;2023-08-21T01:39:24;9.60;;;8.90;;
10013;SDS011;45684;48.358;10.746;2023-08-21T01:41:53;10.03;;;9.13;;
10013;SDS011;45684;48.358;10.746;2023-08-21T01:44:22;8.87;;;8.20;;
10013;SDS011;45684;48.358;10.746;2023-08-21T01:46:50;11.13;;;9.17;;
10013;SDS011;45684;48.358;10.746;2023-08-21T01:49:18;9.57;;;8.77;;
10013;SDS011;45684;48.358;10.746;2023-08-21T01:51:46;9.80;;;9.10;;
10013;SDS011;45684;48.358;10.746;2023-08-21T01:54:14;9.97;;;9.20;;
10013;SDS011;45684;48.358;10.746;2023-08-21T01:56:43;10.03;;;9.33;;
10013;SDS011;45684;48.358;10.746;2023-08-21T01:59:11;10.60;;;9.70;;
10013;SDS011;45684;48.358;10.746;2023-08-21T02:01:40;9.83;;;9.03;;
10013;SDS011;45684;48.358;10.746;2023-08-21T02:04:07;10.33;;;9.40;;
10013;SDS011;45684;48.358;10.746;2023-08-21T02:06:35;10.33;;;9.50;;
10013;SDS011;45684;48.358;10.746;2023-08-21T02:09:05;9.80;;;9.10;;
10013;SDS011;45684;48.358;10.746;2023-08-21T02:11:34;10.23;;;9.53;;
10013;SDS011;45684;48.358;10.746;2023-08-21T02:14:03;10.10;;;9.30;;
10013;SDS011;45684;48.358;10.746;2023-08-21T02:16:31;9.97;;;9.27;;
10013;SDS011;45684;48.358;10.746;2023-08-21T02:18:59;10.40;;;9.50;;
10013;SDS011;45684;48.358;10.746;2023-08-21T02:21:27;10.67;;;9.77;;
10013;SDS011;45684;48.358;10.746;2023-08-21T02:23:55;11.03;;;10.00;;
10013;SDS011;45684;48.358;10.746;2023-08-21T02:26:23;10.57;;;9.77;;
10013;SDS011;45684;48.358;10.746;2023-08-21T02:28:51;10.90;;;10.00;;
10013;SDS011;45684;48.358;10.746;2023-08-21T02:31:20;11.00;;;10.07;;
10013;SDS011;45684;48.358;10.746;2023-08-21T02:33:49;10.73;;;9.90;;
10013;SDS011;45684;48.358;10.746;2023-08-21T02:36:18;10.47;;;9.57;;
10013;SDS011;45684;48.358;10.746;2023-08-21T02:38:46;11.27;;;10.20;;
10013;SDS011;45684;48.358;10.746;2023-08-21T02:41:13;10.80;;;9.80;;
10013;SDS011;45684;48.358;10.746;2023-08-21T02:43:43;10.57;;;9.73;;
10013;SDS011;45684;48.358;10.746;2023-08-21T02:46:11;11.03;;;10.03;;
10013;SDS011;45684;48.358;10.746;2023-08-21T02:48:40;10.67;;;9.77;;
10013;SDS011;45684;48.358;10.746;2023-08-21T02:51:08;10.70;;;9.67;;
10013;SDS011;45684;48.358;10.746;2023-08-21T02:53:36;10.50;;;9.73;;
10013;SDS011;45684;48.358;10.746;2023-08-21T02:56:04;10.97;;;9.97;;
10013;SDS011;45684;48.358;10.746;2023-08-21T02:58:32;11.37;;;10.37;;
10013;SDS011;45684;48.358;10.746;2023-08-21T03:00:59;11.60;;;10.60;;
10013;SDS011;45684;48.358;10.746;2023-08-21T03:03:27;11.57;;;10.43;;
10013;SDS011;45684;48.358;10.746;2023-08-21T03:05:57;10.80;;;10.00;;
10013;SDS011;45684;48.358;10.746;2023-08-21T03:08:24;10.70;;;9.70;;
10013;SDS011;45684;48.358;10.746;2023-08-21T03:10:52;10.73;;;9.90;;
10013;SDS011;45684;48.358;10.746;2023-08-21T03:13:20;11.33;;;10.43;;
10013;SDS011;45684;48.358;10.746;2023-08-21T03:15:48;11.87;;;10.87;;
10013;SDS011;45684;48.358;10.746;2023-08-21T03:18:16;10.90;;;10.10;;
10013;SDS011;45684;48.358;10.746;2023-08-21T03:20:45;10.23;;;9.53;;
10013;SDS011;45684;48.358;10.746;2023-08-21T03:23:15;11.27;;;10.37;;
10013;SDS011;45684;48.358;10.746;2023-08-21T03:25:43;11.27;;;10.33;;
10013;SDS011;45684;48.358;10.746;2023-08-21T03:28:11;10.40;;;9.50;;
10013;SDS011;45684;48.358;10.746;2023-08-21T03:30:39;10.87;;;9.77;;
10013;SDS011;45684;48.358;10.746;2023-08-21T03:33:07;10.77;;;9.97;;
10013;SDS011;45684;48.358;10.746;2023-08-21T03:35:35;10.83;;;9.93;;
10013;SDS011;45684;48.358;10.746;2023-08-21T03:38:03;10.70;;;9.80;;
10013;SDS011;45684;48.358;10.746;2023-08-21T03:40:40;10.40;;;9.67;;
10013;SDS011;45684;48.358;10.746;2023-08-21T03:43:09;10.33;;;9.33;;
10013;SDS011;45684;48.358;10.746;2023-08-21T03:45:37;10.03;;;9.33;;
10013;SDS011;45684;48.358;10.746;2023-08-21T03:48:06;10.73;;;9.93;;
10013;SDS011;45684;48.358;10.746;2023-08-21T03:50:34;11.17;;;10.27;;
10013;SDS011;45684;48.358;10.746;2023-08-21T03:53:02;11.17;;;10.27;;
10013;SDS011;45684;48.358;10.746;2023-08-21T03:55:30;10.80;;;9.90;;
10013;SDS011;45684;48.358;10.746;2023-08-21T03:58:00;11.60;;;10.60;;
10013;SDS011;45684;48.358;10.746;2023-08-21T04:00:28;11.13;;;10.33;;
10013;SDS011;45684;48.358;10.746;2023-08-21T04:02:57;10.23;;;9.53;;
10013;SDS011;45684;48.358;10.746;2023-08-21T04:05:26;10.70;;;9.80;;
10013;SDS011;45684;48.358;10.746;2023-08-21T04:07:55;10.90;;;10.10;;
10013;SDS011;45684;48.358;10.746;2023-08-21T04:10:23;10.80;;;9.90;;
10013;SDS011;45684;48.358;10.746;2023-08-21T04:12:51;10.90;;;9.93;;
10013;SDS011;45684;48.358;10.746;2023-08-21T04:15:20;10.70;;;9.20;;
10013;SDS011;45684;48.358;10.746;2023-08-21T04:17:48;10.43;;;9.63;;
10013;SDS011;45684;48.358;10.746;2023-08-21T04:20:16;10.27;;;9.57;;
10013;SDS011;45684;48.358;10.746;2023-08-21T04:22:44;11.33;;;10.40;;
10013;SDS011;45684;48.358;10.746;2023-08-21T04:25:12;11.20;;;10.40;;
10013;SDS011;45684;48.358;10.746;2023-08-21T04:27:40;10.83;;;9.93;;
10013;SDS011;45684;48.358;10.746;2023-08-21T04:30:09;10.63;;;9.83;;
10013;SDS011;45684;48.358;10.746;2023-08-21T04:32:39;11.87;;;10.80;;
10013;SDS011;45684;48.358;10.746;2023-08-21T04:35:08;11.40;;;10.50;;
10013;SDS011;45684;48.358;10.746;2023-08-21T04:37:37;10.80;;;9.90;;
10013;SDS011;45684;48.358;10.746;2023-08-21T04:40:11;14.07;;;11.03;;
10013;SDS011;45684;48.358;10.746;2023-08-21T04:42:40;11.33;;;10.43;;
10013;SDS011;45684;48.358;10.746;2023-08-21T04:45:08;11.47;;;10.37;;
10013;SDS011;45684;48.358;10.746;2023-08-21T04:47:39;12.03;;;11.00;;
10013;SDS011;45684;48.358;10.746;2023-08-21T04:50:07;11.27;;;10.43;;
10013;SDS011;45684;48.358;10.746;2023-08-21T04:52:35;11.80;;;10.77;;
10013;SDS011;45684;48.358;10.746;2023-08-21T04:55:04;11.00;;;10.20;;
10013;SDS011;45684;48.358;10.746;2023-08-21T04:57:34;10.80;;;9.93;;
10013;SDS011;45684;48.358;10.746;2023-08-21T05:00:06;11.77;;;10.77;;
10013;SDS011;45684;48.358;10.746;2023-08-21T05:02:40;12.20;;;11.20;;
10013;SDS011;45684;48.358;10.746;2023-08-21T05:05:08;11.73;;;10.93;;
10013;SDS011;45684;48.358;10.746;2023-08-21T05:07:36;12.07;;;10.93;;
10013;SDS011;45684;48.358;10.746;2023-08-21T05:10:04;12.47;;;11.30;;
10013;SDS011;45684;48.358;10.746;2023-08-21T05:12:35;12.90;;;11.90;;
10013;SDS011;45684;48.358;10.746;2023-08-21T05:15:03;12.63;;;11.50;;
10013;SDS011;45684;48.358;10.746;2023-08-21T05:17:33;12.43;;;11.43;;
10013;SDS011;45684;48.358;10.746;2023-08-21T05:20:02;12.33;;;11.30;;
10013;SDS011;45684;48.358;10.746;2023-08-21T05:22:32;13.43;;;12.13;;
10013;SDS011;45684;48.358;10.746;2023-08-21T05:24:59;12.40;;;11.53;;
10013;SDS011;45684;48.358;10.746;2023-08-21T05:27:28;12.03;;;11.03;;
10013;SDS011;45684;48.358;10.746;2023-08-21T05:29:56;12.87;;;11.40;;
10013;SDS011;45684;48.358;10.746;2023-08-21T05:32:23;12.63;;;11.60;;
10013;SDS011;45684;48.358;10.746;2023-08-21T05:34:51;12.80;;;11.70;;
10013;SDS011;45684;48.358;10.746;2023-08-21T05:37:21;13.33;;;12.07;;
10013;SDS011;45684;48.358;10.746;2023-08-21T05:39:49;13.63;;;12.17;;
10013;SDS011;45684;48.358;10.746;2023-08-21T05:42:16;14.50;;;13.23;;
10013;SDS011;45684;48.358;10.746;2023-08-21T05:44:44;14.03;;;12.63;;
10013;SDS011;45684;48.358;10.746;2023-08-21T05:47:12;13.50;;;12.47;;
10013;SDS011;45684;48.358;10.746;2023-08-21T05:49:40;12.97;;;11.97;;
10013;SDS011;45684;48.358;10.746;2023-08-21T05:52:09;14.67;;;13.00;;
10013;SDS011;45684;48.358;10.746;2023-08-21T05:54:38;12.03;;;10.93;;
10013;SDS011;45684;48.358;10.746;2023-08-21T05:57:06;13.50;;;12.40;;
10013;SDS011;45684;48.358;10.746;2023-08-21T05:59:34;13.43;;;12.43;;
10013;SDS011;45684;48.358;10.746;2023-08-21T06:02:02;13.63;;;12.37;;
10013;SDS011;45684;48.358;10.746;2023-08-21T06:04:30;14.00;;;12.90;;
10013;SDS011;45684;48.358;10.746;2023-08-21T06:07:00;14.77;;;13.47;;
10013;SDS011;45684;48.358;10.746;2023-08-21T06:09:29;13.80;;;12.70;;
10013;SDS011;45684;48.358;10.746;2023-08-21T06:11:59;13.43;;;12.53;;
10013;SDS011;45684;48.358;10.746;2023-08-21T06:14:28;12.70;;;11.73;;
10013;SDS011;45684;48.358;10.746;2023-08-21T06:17:00;13.57;;;12.57;;
10013;SDS011;45684;48.358;10.746;2023-08-21T06:19:29;13.30;;;12.03;;
10013;SDS011;45684;48.358;10.746;2023-08-21T06:21:57;13.47;;;12.47;;
10013;SDS011;45684;48.358;10.746;2023-08-21T06:24:25;14.07;;;12.90;;
10013;SDS011;45684;48.358;10.746;2023-08-21T06:27:00;14.40;;;13.00;;
10013;SDS011;45684;48.358;10.746;2023-08-21T06:29:31;13.57;;;12.57;;
10013;SDS011;45684;48.358;10.746;2023-08-21T06:31:59;13.90;;;12.90;;
10013;SDS011;45684;48.358;10.746;2023-08-21T06:34:28;12.05;;;11.25;;
10013;SDS011;45684;48.358;10.746;2023-08-21T06:36:56;13.43;;;12.43;;
10013;SDS011;45684;48.358;10.746;2023-08-21T06:39:25;13.80;;;12.60;;
10013;SDS011;45684;48.358;10.746;2023-08-21T06:41:53;14.25;;;13.13;;
10013;SDS011;45684;48.358;10.746;2023-08-21T06:44:31;14.35;;;12.93;;
10013;SDS011;45684;48.358;10.746;2023-08-21T06:46:59;12.95;;;11.85;;
10013;SDS011;45684;48.358;10.746;2023-08-21T06:49:27;13.10;;;12.10;;
10013;SDS011;45684;48.358;10.746;2023-08-21T06:51:55;13.40;;;12.27;;
10013;SDS011;45684;48.358;10.746;2023-08-21T06:54:23;14.07;;;12.70;;
10013;SDS011;45684;48.358;10.746;2023-08-21T06:56:51;13.60;;;12.25;;
10013;SDS011;45684;48.358;10.746;2023-08-21T06:59:18;13.88;;;12.55;;
10013;SDS011;45684;48.358;10.746;2023-08-21T07:01:48;13.10;;;11.90;;
10013;SDS011;45684;48.358;10.746;2023-08-21T07:04:16;12.68;;;11.60;;
10013;SDS011;45684;48.358;10.746;2023-08-21T07:06:44;11.90;;;11.10;;
10013;SDS011;45684;48.358;10.746;2023-08-21T07:09:12;11.75;;;10.85;;
10013;SDS011;45684;48.358;10.746;2023-08-21T07:11:40;12.82;;;11.88;;
10013;SDS011;45684;48.358;10.746;2023-08-21T07:14:07;13.10;;;11.93;;
10013;SDS011;45684;48.358;10.746;2023-08-21T07:16:36;13.25;;;12.13;;
10013;SDS011;45684;48.358;10.746;2023-08-21T07:19:05;12.23;;;11.32;;
10013;SDS011;45684;48.358;10.746;2023-08-21T07:21:33;11.65;;;10.75;;
10013;SDS011;45684;48.358;10.746;2023-08-21T07:24:02;12.57;;;11.57;;
10013;SDS011;45684;48.358;10.746;2023-08-21T07:26:30;12.52;;;11.48;;
10013;SDS011;45684;48.358;10.746;2023-08-21T07:28:58;13.00;;;11.77;;
10013;SDS011;45684;48.358;10.746;2023-08-21T07:31:26;12.15;;;11.05;;
10013;SDS011;45684;48.358;10.746;2023-08-21T07:33:54;11.80;;;10.80;;
10013;SDS011;45684;48.358;10.746;2023-08-21T07:36:23;12.13;;;11.25;;
10013;SDS011;45684;48.358;10.746;2023-08-21T07:38:51;12.00;;;10.95;;
10013;SDS011;45684;48.358;10.746;2023-08-21T07:41:19;11.77;;;10.70;;
10013;SDS011;45684;48.358;10.746;2023-08-21T07:43:47;12.65;;;11.48;;
10013;SDS011;45684;48.358;10.746;2023-08-21T07:46:14;11.57;;;10.68;;
10013;SDS011;45684;48.358;10.746;2023-08-21T07:48:45;11.75;;;10.85;;
10013;SDS011;45684;48.358;10.746;2023-08-21T07:51:13;12.48;;;11.27;;
10013;SDS011;45684;48.358;10.746;2023-08-21T07:53:42;11.50;;;10.40;;
10013;SDS011;45684;48.358;10.746;2023-08-21T07:56:10;11.13;;;10.32;;
10013;SDS011;45684;48.358;10.746;2023-08-21T07:58:38;12.00;;;10.93;;
10013;SDS011;45684;48.358;10.746;2023-08-21T08:01:06;11.88;;;10.98;;
10013;SDS011;45684;48.358;10.746;2023-08-21T08:03:39;11.10;;;10.40;;
10013;SDS011;45684;48.358;10.746;2023-08-21T08:06:06;12.52;;;11.32;;
10013;SDS011;45684;48.358;10.746;2023-08-21T08:08:34;12.05;;;11.02;;
10013;SDS011;45684;48.358;10.746;2023-08-21T08:11:04;10.60;;;9.90;;
10013;SDS011;45684;48.358;10.746;2023-08-21T08:13:32;12.07;;;10.90;;
10013;SDS011;45684;48.358;10.746;2023-08-21T08:16:00;10.88;;;9.88;;
10013;SDS011;45684;48.358;10.746;2023-08-21T08:18:28;11.65;;;10.65;;
10013;SDS011;45684;48.358;10.746;2023-08-21T08:20:56;11.30;;;10.38;;
10013;SDS011;45684;48.358;10.746;2023-08-21T08:23:23;11.52;;;10.60;;
10013;SDS011;45684;48.358;10.746;2023-08-21T08:25:51;11.13;;;10.23;;
10013;SDS011;45684;48.358;10.746;2023-08-21T08:28:21;10.30;;;9.40;;
10013;SDS011;45684;48.358;10.746;2023-08-21T08:30:49;10.40;;;9.60;;
10013;SDS011;45684;48.358;10.746;2023-08-21T08:33:17;10.55;;;9.75;;
10013;SDS011;45684;48.358;10.746;2023-08-21T08:35:45;10.32;;;9.55;;
10013;SDS011;45684;48.358;10.746;2023-08-21T08:38:13;11.38;;;10.25;;
10013;SDS011;45684;48.358;10.746;2023-08-21T08:40:42;10.63;;;9.82;;
10013;SDS011;45684;48.358;10.746;2023-08-21T08:43:12;10.65;;;9.85;;
10013;SDS011;45684;48.358;10.746;2023-08-21T08:45:42;9.93;;;9.25;;
10013;SDS011;45684;48.358;10.746;2023-08-21T08:48:14;11.20;;;10.38;;
10013;SDS011;45684;48.358;10.746;2023-08-21T08:50:43;10.43;;;9.73;;
10013;SDS011;45684;48.358;10.746;2023-08-21T08:53:13;10.48;;;9.77;;
10013;SDS011;45684;48.358;10.746;2023-08-21T08:55:43;11.25;;;10.23;;
10013;SDS011;45684;48.358;10.746;2023-08-21T08:58:11;10.57;;;9.88;;
10013;SDS011;45684;48.358;10.746;2023-08-21T09:00:39;11.35;;;10.65;;
10013;SDS011;45684;48.358;10.746;2023-08-21T09:03:08;10.60;;;9.75;;
10013;SDS011;45684;48.358;10.746;2023-08-21T09:05:39;11.02;;;10.32;;
10013;SDS011;45684;48.358;10.746;2023-08-21T09:08:10;11.10;;;10.30;;
10013;SDS011;45684;48.358;10.746;2023-08-21T09:10:39;11.23;;;10.43;;
10013;SDS011;45684;48.358;10.746;2023-08-21T09:13:11;11.95;;;11.10;;
10013;SDS011;45684;48.358;10.746;2023-08-21T09:15:40;10.82;;;10.05;;
10013;SDS011;45684;48.358;10.746;2023-08-21T09:18:11;12.05;;;10.93;;
10013;SDS011;45684;48.358;10.746;2023-08-21T09:20:39;11.93;;;11.05;;
10013;SDS011;45684;48.358;10.746;2023-08-21T09:23:07;11.57;;;10.65;;
10013;SDS011;45684;48.358;10.746;2023-08-21T09:25:35;11.93;;;11.02;;
10013;SDS011;45684;48.358;10.746;2023-08-21T09:28:05;11.88;;;11.07;;
10013;SDS011;45684;48.358;10.746;2023-08-21T09:30:43;12.38;;;11.38;;
10013;SDS011;45684;48.358;10.746;2023-08-21T09:33:13;11.77;;;10.68;;
10013;SDS011;45684;48.358;10.746;2023-08-21T09:35:44;11.70;;;10.70;;
10013;SDS011;45684;48.358;10.746;2023-08-21T09:38:13;11.60;;;10.70;;
10013;SDS011;45684;48.358;10.746;2023-08-21T09:40:41;10.73;;;9.93;;
10013;SDS011;45684;48.358;10.746;2023-08-21T09:43:10;10.93;;;10.13;;
10013;SDS011;45684;48.358;10.746;2023-08-21T09:45:38;11.57;;;10.70;;
10013;SDS011;45684;48.358;10.746;2023-08-21T09:48:06;10.63;;;10.02;;
10013;SDS011;45684;48.358;10.746;2023-08-21T09:50:37;11.43;;;10.43;;
10013;SDS011;45684;48.358;10.746;2023-08-21T09:53:07;10.20;;;9.50;;
10013;SDS011;45684;48.358;10.746;2023-08-21T09:55:35;10.57;;;9.88;;
10013;SDS011;45684;48.358;10.746;2023-08-21T09:58:03;10.65;;;9.90;;
10013;SDS011;45684;48.358;10.746;2023-08-21T10:00:32;11.00;;;10.20;;
10013;SDS011;45684;48.358;10.746;2023-08-21T10:03:01;10.80;;;10.00;;
10013;SDS011;45684;48.358;10.746;2023-08-21T10:05:30;10.23;;;9.52;;
10013;SDS011;45684;48.358;10.746;2023-08-21T10:08:02;11.20;;;10.40;;
10013;SDS011;45684;48.358;10.746;2023-08-21T10:10:31;10.43;;;9.73;;
10013;SDS011;45684;48.358;10.746;2023-08-21T10:13:00;10.33;;;9.63;;
10013;SDS011;45684;48.358;10.746;2023-08-21T10:15:29;10.32;;;9.65;;
10013;SDS011;45684;48.358;10.746;2023-08-21T10:17:59;10.70;;;9.77;;
10013;SDS011;45684;48.358;10.746;2023-08-21T10:20:45;9.80;;;9.18;;
10013;SDS011;45684;48.358;10.746;2023-08-21T10:23:24;10.48;;;9.68;;
10013;SDS011;45684;48.358;10.746;2023-08-21T10:25:55;10.43;;;9.80;;
10013;SDS011;45684;48.358;10.746;2023-08-21T10:28:37;11.50;;;10.70;;
10013;SDS011;45684;48.358;10.746;2023-08-21T10:31:28;10.32;;;9.63;;
10013;SDS011;45684;48.358;10.746;2023-08-21T10:33:58;11.35;;;10.75;;
10013;SDS011;45684;48.358;10.746;2023-08-21T10:36:36;11.27;;;10.30;;
10013;SDS011;45684;48.358;10.746;2023-08-21T10:39:13;10.73;;;9.93;;
10013;SDS011;45684;48.358;10.746;2023-08-21T10:41:52;10.82;;;10.18;;
10013;SDS011;45684;48.358;10.746;2023-08-21T10:44:38;12.50;;;11.70;;
10013;SDS011;45684;48.358;10.746;2023-08-21T10:47:18;21.35;;;20.15;;
10013;SDS011;45684;48.358;10.746;2023-08-21T10:49:48;11.60;;;10.90;;
10013;SDS011;45684;48.358;10.746;2023-08-21T10:52:20;11.00;;;10.18;;
10013;SDS011;45684;48.358;10.746;2023-08-21T10:54:51;10.02;;;9.32;;
10013;SDS011;45684;48.358;10.746;2023-08-21T10:57:19;14.70;;;13.77;;
10013;SDS011;45684;48.358;10.746;2023-08-21T10:59:54;15.73;;;14.82;;
10013;SDS011;45684;48.358;10.746;2023-08-21T11:02:23;30.88;;;29.42;;
10013;SDS011;45684;48.358;10.746;2023-08-21T11:04:52;40.55;;;38.65;;
10013;SDS011;45684;48.358;10.746;2023-08-21T11:07:20;42.75;;;40.70;;
10013;SDS011;45684;48.358;10.746;2023-08-21T11:09:50;45.40;;;43.40;;
10013;SDS011;45684;48.358;10.746;2023-08-21T11:12:19;26.50;;;25.13;;
10013;SDS011;45684;48.358;10.746;2023-08-21T11:14:48;43.42;;;41.28;;
10013;SDS011;45684;48.358;10.746;2023-08-21T11:17:17;25.08;;;23.77;;
10013;SDS011;45684;48.358;10.746;2023-08-21T11:19:45;32.35;;;30.80;;
10013;SDS011;45684;48.358;10.746;2023-08-21T11:22:15;40.95;;;39.08;;
10013;SDS011;45684;48.358;10.746;2023-08-21T11:24:44;36.47;;;34.58;;
10013;SDS011;45684;48.358;10.746;2023-08-21T11:27:15;52.60;;;50.25;;
10013;SDS011;45684;48.358;10.746;2023-08-21T11:29:45;49.40;;;47.20;;
10013;SDS011;45684;48.358;10.746;2023-08-21T11:32:14;41.50;;;39.65;;
10013;SDS011;45684;48.358;10.746;2023-08-21T11:34:43;95.65;;;91.68;;
10013;SDS011;45684;48.358;10.746;2023-08-21T11:37:16;27.67;;;26.27;;
10013;SDS011;45684;48.358;10.746;2023-08-21T11:39:44;56.30;;;53.88;;
10013;SDS011;45684;48.358;10.746;2023-08-21T11:42:15;46.47;;;44.28;;
10013;SDS011;45684;48.358;10.746;2023-08-21T11:44:44;149.30;;;143.23;;
10013;SDS011;45684;48.358;10.746;2023-08-21T11:47:14;106.65;;;102.20;;
10013;SDS011;45684;48.358;10.746;2023-08-21T11:49:43;102.85;;;98.78;;
10013;SDS011;45684;48.358;10.746;2023-08-21T11:52:13;117.43;;;112.80;;
10013;SDS011;45684;48.358;10.746;2023-08-21T11:54:41;156.57;;;150.60;;
10013;SDS011;45684;48.358;10.746;2023-08-21T11:57:12;146.32;;;140.43;;
10013;SDS011;45684;48.358;10.746;2023-08-21T11:59:42;103.35;;;99.10;;
10013;SDS011;45684;48.358;10.746;2023-08-21T12:02:13;98.35;;;94.30;;
10013;SDS011;45684;48.358;10.746;2023-08-21T12:04:42;61.33;;;58.55;;
10013;SDS011;45684;48.358;10.746;2023-08-21T12:07:11;31.25;;;29.65;;
10013;SDS011;45684;48.358;10.746;2023-08-21T12:09:39;87.13;;;83.22;;
10013;SDS011;45684;48.358;10.746;2023-08-21T12:12:13;120.30;;;115.38;;
10013;SDS011;45684;48.358;10.746;2023-08-21T12:14:42;99.70;;;95.53;;
10013;SDS011;45684;48.358;10.746;2023-08-21T12:17:10;66.80;;;63.83;;
10013;SDS011;45684;48.358;10.746;2023-08-21T12:19:38;36.40;;;34.55;;
10013;SDS011;45684;48.358;10.746;2023-08-21T12:22:06;18.50;;;17.30;;
10013;SDS011;45684;48.358;10.746;2023-08-21T12:24:34;18.17;;;17.10;;
10013;SDS011;45684;48.358;10.746;2023-08-21T12:27:03;20.42;;;19.13;;
10013;SDS011;45684;48.358;10.746;2023-08-21T12:29:31;67.63;;;64.72;;
10013;SDS011;45684;48.358;10.746;2023-08-21T12:32:00;68.72;;;65.55;;
10013;SDS011;45684;48.358;10.746;2023-08-21T12:34:29;119.78;;;114.65;;
10013;SDS011;45684;48.358;10.746;2023-08-21T12:36:57;126.35;;;121.20;;
10013;SDS011;45684;48.358;10.746;2023-08-21T12:39:24;149.05;;;142.82;;
10013;SDS011;45684;48.358;10.746;2023-08-21T12:41:52;127.90;;;122.57;;
10013;SDS011;45684;48.358;10.746;2023-08-21T12:44:20;145.90;;;139.52;;
10013;SDS011;45684;48.358;10.746;2023-08-21T12:46:48;141.30;;;135.23;;
10013;SDS011;45684;48.358;10.746;2023-08-21T12:49:18;180.57;;;173.25;;
10013;SDS011;45684;48.358;10.746;2023-08-21T12:51:46;170.70;;;163.13;;
10013;SDS011;45684;48.358;10.746;2023-08-21T12:54:14;130.05;;;124.53;;
10013;SDS011;45684;48.358;10.746;2023-08-21T12:56:42;43.17;;;41.20;;
10013;SDS011;45684;48.358;10.746;2023-08-21T12:59:09;75.53;;;72.20;;
10013;SDS011;45684;48.358;10.746;2023-08-21T13:01:37;201.82;;;193.20;;
10013;SDS011;45684;48.358;10.746;2023-08-21T13:04:05;232.88;;;222.88;;
10013;SDS011;45684;48.358;10.746;2023-08-21T13:06:34;185.50;;;177.88;;
10013;SDS011;45684;48.358;10.746;2023-08-21T13:09:02;149.10;;;142.48;;
10013;SDS011;45684;48.358;10.746;2023-08-21T13:11:33;52.88;;;50.42;;
10013;SDS011;45684;48.358;10.746;2023-08-21T13:14:01;58.25;;;55.60;;
10013;SDS011;45684;48.358;10.746;2023-08-21T13:16:28;60.63;;;57.92;;
10013;SDS011;45684;48.358;10.746;2023-08-21T13:18:56;34.85;;;33.22;;
10013;SDS011;45684;48.358;10.746;2023-08-21T13:21:24;38.08;;;36.30;;
10013;SDS011;45684;48.358;10.746;2023-08-21T13:23:53;65.25;;;62.30;;
10013;SDS011;45684;48.358;10.746;2023-08-21T13:26:21;69.97;;;67.07;;
10013;SDS011;45684;48.358;10.746;2023-08-21T13:28:49;57.78;;;55.13;;
10013;SDS011;45684;48.358;10.746;2023-08-21T13:31:17;66.93;;;63.67;;
10013;SDS011;45684;48.358;10.746;2023-08-21T13:33:45;52.03;;;49.38;;
10013;SDS011;45684;48.358;10.746;2023-08-21T13:36:17;42.80;;;40.67;;
10013;SDS011;45684;48.358;10.746;2023-08-21T13:38:50;69.88;;;66.97;;
10013;SDS011;45684;48.358;10.746;2023-08-21T13:41:19;31.42;;;30.05;;
10013;SDS011;45684;48.358;10.746;2023-08-21T13:43:47;59.90;;;57.25;;
10013;SDS011;45684;48.358;10.746;2023-08-21T13:46:16;77.35;;;74.30;;
10013;SDS011;45684;48.358;10.746;2023-08-21T13:48:44;50.67;;;48.47;;
10013;SDS011;45684;48.358;10.746;2023-08-21T13:51:12;26.00;;;24.90;;
10013;SDS011;45684;48.358;10.746;2023-08-21T13:53:39;33.42;;;31.95;;
10013;SDS011;45684;48.358;10.746;2023-08-21T13:56:07;39.05;;;37.35;;
10013;SDS011;45684;48.358;10.746;2023-08-21T13:58:37;45.78;;;43.67;;
10013;SDS011;45684;48.358;10.746;2023-08-21T14:01:04;46.30;;;44.17;;
10013;SDS011;45684;48.358;10.746;2023-08-21T14:03:38;130.55;;;125.07;;
10013;SDS011;45684;48.358;10.746;2023-08-21T14:06:05;86.00;;;82.55;;
10013;SDS011;45684;48.358;10.746;2023-08-21T14:08:38;62.42;;;59.65;;
10013;SDS011;45684;48.358;10.746;2023-08-21T14:11:06;56.83;;;54.35;;
10013;SDS011;45684;48.358;10.746;2023-08-21T14:13:33;57.22;;;54.83;;
10013;SDS011;45684;48.358;10.746;2023-08-21T14:16:03;55.80;;;53.42;;
10013;SDS011;45684;48.358;10.746;2023-08-21T14:18:31;83.95;;;80.40;;
10013;SDS011;45684;48.358;10.746;2023-08-21T14:20:59;75.50;;;72.45;;
10013;SDS011;45684;48.358;10.746;2023-08-21T14:23:27;190.60;;;182.77;;
10013;SDS011;45684;48.358;10.746;2023-08-21T14:25:59;168.77;;;161.88;;